sensor_id;sensor_type;location;lat;lon;timestamp;P1;durP1;ratioP1;P2;durP2;ratioP2
63316;SDS011;49822;41.468;13.560;2022-09-03T00:00:07;8.68;;;2.55;;
63316;SDS011;49822;41.468;13.560;2022-09-03T00:05:28;4.13;;;2.58;;
63316;SDS011;49822;41.468;13.560;2022-09-03T00:08:16;3.42;;;2.30;;
63316;SDS011;49822;41.468;13.560;2022-09-03T00:10:53;4.07;;;2.60;;
63316;SDS011;49822;41.468;13.560;2022-09-03T00:13:32;6.17;;;2.50;;
63316;SDS011;49822;41.468;13.560;2022-09-03T00:16:12;3.85;;;2.80;;
63316;SDS011;49822;41.468;13.560;2022-09-03T00:18:46;5.50;;;3.05;;
63316;SDS011;49822;41.468;13.560;2022-09-03T00:21:31;2.95;;;2.40;;
63316;SDS011;49822;41.468;13.560;2022-09-03T00:24:08;3.95;;;2.40;;
63316;SDS011;49822;41.468;13.560;2022-09-03T00:26:42;6.43;;;2.45;;
63316;SDS011;49822;41.468;13.560;2022-09-03T00:35:04;4.72;;;2.70;;
63316;SDS011;49822;41.468;13.560;2022-09-03T00:37:38;5.47;;;2.95;;
63316;SDS011;49822;41.468;13.560;2022-09-03T00:40:10;4.68;;;2.90;;
63316;SDS011;49822;41.468;13.560;2022-09-03T00:45:30;3.70;;;2.75;;
63316;SDS011;49822;41.468;13.560;2022-09-03T00:48:29;6.15;;;2.50;;
63316;SDS011;49822;41.468;13.560;2022-09-03T00:51:57;5.20;;;2.63;;
63316;SDS011;49822;41.468;13.560;2022-09-03T00:54:30;6.03;;;3.03;;
63316;SDS011;49822;41.468;13.560;2022-09-03T01:14:06;6.50;;;2.60;;
63316;SDS011;49822;41.468;13.560;2022-09-03T01:31:01;7.93;;;2.53;;
63316;SDS011;49822;41.468;13.560;2022-09-03T01:42:22;5.90;;;2.20;;
63316;SDS011;49822;41.468;13.560;2022-09-03T01:59:03;3.40;;;2.40;;
63316;SDS011;49822;41.468;13.560;2022-09-03T02:04:34;6.53;;;2.47;;
63316;SDS011;49822;41.468;13.560;2022-09-03T02:07:02;3.95;;;2.30;;
63316;SDS011;49822;41.468;13.560;2022-09-03T02:09:31;5.03;;;2.45;;
63316;SDS011;49822;41.468;13.560;2022-09-03T02:12:02;3.95;;;2.40;;
63316;SDS011;49822;41.468;13.560;2022-09-03T02:14:39;5.63;;;2.38;;
63316;SDS011;49822;41.468;13.560;2022-09-03T02:17:07;5.60;;;2.45;;
63316;SDS011;49822;41.468;13.560;2022-09-03T02:19:36;5.20;;;2.72;;
63316;SDS011;49822;41.468;13.560;2022-09-03T02:22:04;7.00;;;2.63;;
63316;SDS011;49822;41.468;13.560;2022-09-03T02:24:32;3.75;;;2.35;;
63316;SDS011;49822;41.468;13.560;2022-09-03T02:27:00;4.47;;;2.10;;
63316;SDS011;49822;41.468;13.560;2022-09-03T02:29:27;4.45;;;2.42;;
63316;SDS011;49822;41.468;13.560;2022-09-03T02:31:56;3.33;;;2.45;;
63316;SDS011;49822;41.468;13.560;2022-09-03T02:34:25;3.65;;;2.42;;
63316;SDS011;49822;41.468;13.560;2022-09-03T02:36:52;4.57;;;2.47;;
63316;SDS011;49822;41.468;13.560;2022-09-03T02:39:20;6.35;;;2.65;;
63316;SDS011;49822;41.468;13.560;2022-09-03T02:41:54;8.30;;;2.53;;
63316;SDS011;49822;41.468;13.560;2022-09-03T02:44:25;3.35;;;2.42;;
63316;SDS011;49822;41.468;13.560;2022-09-03T02:46:58;3.60;;;2.15;;
63316;SDS011;49822;41.468;13.560;2022-09-03T02:49:28;5.90;;;2.13;;
63316;SDS011;49822;41.468;13.560;2022-09-03T02:52:01;3.70;;;2.15;;
63316;SDS011;49822;41.468;13.560;2022-09-03T02:54:38;4.55;;;2.17;;
63316;SDS011;49822;41.468;13.560;2022-09-03T02:57:06;5.55;;;2.83;;
63316;SDS011;49822;41.468;13.560;2022-09-03T02:59:35;3.17;;;2.38;;
63316;SDS011;49822;41.468;13.560;2022-09-03T03:02:04;6.68;;;2.47;;
63316;SDS011;49822;41.468;13.560;2022-09-03T03:04:31;7.50;;;2.33;;
63316;SDS011;49822;41.468;13.560;2022-09-03T03:06:59;4.97;;;2.40;;
63316;SDS011;49822;41.468;13.560;2022-09-03T03:09:26;4.50;;;2.38;;
63316;SDS011;49822;41.468;13.560;2022-09-03T03:11:59;6.82;;;2.28;;
63316;SDS011;49822;41.468;13.560;2022-09-03T03:14:27;3.90;;;2.17;;
63316;SDS011;49822;41.468;13.560;2022-09-03T03:16:56;5.35;;;2.40;;
63316;SDS011;49822;41.468;13.560;2022-09-03T03:19:25;4.10;;;2.42;;
63316;SDS011;49822;41.468;13.560;2022-09-03T03:21:52;2.92;;;2.35;;
63316;SDS011;49822;41.468;13.560;2022-09-03T03:24:20;6.07;;;2.33;;
63316;SDS011;49822;41.468;13.560;2022-09-03T03:26:47;3.72;;;2.30;;
63316;SDS011;49822;41.468;13.560;2022-09-03T03:29:16;4.75;;;2.50;;
63316;SDS011;49822;41.468;13.560;2022-09-03T03:31:44;10.50;;;2.25;;
63316;SDS011;49822;41.468;13.560;2022-09-03T03:34:11;3.80;;;2.45;;
63316;SDS011;49822;41.468;13.560;2022-09-03T03:36:39;4.32;;;2.40;;
63316;SDS011;49822;41.468;13.560;2022-09-03T03:39:07;5.93;;;2.30;;
63316;SDS011;49822;41.468;13.560;2022-09-03T03:41:36;3.47;;;2.45;;
63316;SDS011;49822;41.468;13.560;2022-09-03T03:44:05;5.40;;;2.30;;
63316;SDS011;49822;41.468;13.560;2022-09-03T03:46:35;4.32;;;2.30;;
63316;SDS011;49822;41.468;13.560;2022-09-03T03:49:05;3.90;;;2.65;;
63316;SDS011;49822;41.468;13.560;2022-09-03T03:51:33;5.07;;;2.20;;
63316;SDS011;49822;41.468;13.560;2022-09-03T03:54:01;5.53;;;2.50;;
63316;SDS011;49822;41.468;13.560;2022-09-03T03:56:32;7.50;;;2.55;;
63316;SDS011;49822;41.468;13.560;2022-09-03T03:59:02;6.88;;;2.10;;
63316;SDS011;49822;41.468;13.560;2022-09-03T04:01:29;5.15;;;2.35;;
63316;SDS011;49822;41.468;13.560;2022-09-03T04:03:59;4.45;;;2.30;;
63316;SDS011;49822;41.468;13.560;2022-09-03T04:06:27;5.45;;;2.20;;
63316;SDS011;49822;41.468;13.560;2022-09-03T04:08:55;3.75;;;2.35;;
63316;SDS011;49822;41.468;13.560;2022-09-03T04:11:23;5.28;;;2.30;;
63316;SDS011;49822;41.468;13.560;2022-09-03T04:13:51;5.90;;;2.88;;
63316;SDS011;49822;41.468;13.560;2022-09-03T04:16:23;4.90;;;2.92;;
63316;SDS011;49822;41.468;13.560;2022-09-03T04:18:53;7.05;;;2.55;;
63316;SDS011;49822;41.468;13.560;2022-09-03T04:21:26;5.00;;;2.78;;
63316;SDS011;49822;41.468;13.560;2022-09-03T04:23:56;3.58;;;2.70;;
63316;SDS011;49822;41.468;13.560;2022-09-03T04:26:25;3.92;;;2.60;;
63316;SDS011;49822;41.468;13.560;2022-09-03T04:28:59;3.22;;;2.33;;
63316;SDS011;49822;41.468;13.560;2022-09-03T04:31:29;4.13;;;2.80;;
63316;SDS011;49822;41.468;13.560;2022-09-03T04:33:57;5.50;;;3.10;;
63316;SDS011;49822;41.468;13.560;2022-09-03T04:36:26;4.10;;;2.72;;
63316;SDS011;49822;41.468;13.560;2022-09-03T04:38:57;5.28;;;2.38;;
63316;SDS011;49822;41.468;13.560;2022-09-03T04:41:27;10.25;;;3.80;;
63316;SDS011;49822;41.468;13.560;2022-09-03T04:46:25;5.03;;;2.63;;
63316;SDS011;49822;41.468;13.560;2022-09-03T04:49:00;5.13;;;2.70;;
63316;SDS011;49822;41.468;13.560;2022-09-03T04:51:28;7.13;;;2.67;;
63316;SDS011;49822;41.468;13.560;2022-09-03T04:53:58;4.68;;;2.78;;
63316;SDS011;49822;41.468;13.560;2022-09-03T04:56:28;8.25;;;2.90;;
63316;SDS011;49822;41.468;13.560;2022-09-03T04:59:03;6.63;;;2.85;;
63316;SDS011;49822;41.468;13.560;2022-09-03T05:01:33;5.43;;;2.72;;
63316;SDS011;49822;41.468;13.560;2022-09-03T05:04:05;5.63;;;2.47;;
63316;SDS011;49822;41.468;13.560;2022-09-03T05:06:33;7.72;;;3.28;;
63316;SDS011;49822;41.468;13.560;2022-09-03T05:09:02;12.20;;;4.88;;
63316;SDS011;49822;41.468;13.560;2022-09-03T05:11:31;19.42;;;5.88;;
63316;SDS011;49822;41.468;13.560;2022-09-03T05:13:59;13.65;;;5.00;;
63316;SDS011;49822;41.468;13.560;2022-09-03T05:16:34;4.75;;;3.00;;
63316;SDS011;49822;41.468;13.560;2022-09-03T05:19:01;7.95;;;2.75;;
63316;SDS011;49822;41.468;13.560;2022-09-03T05:21:34;4.30;;;2.40;;
63316;SDS011;49822;41.468;13.560;2022-09-03T05:24:02;6.63;;;2.92;;
63316;SDS011;49822;41.468;13.560;2022-09-03T05:26:34;6.22;;;2.78;;
63316;SDS011;49822;41.468;13.560;2022-09-03T05:29:04;38.90;;;13.05;;
63316;SDS011;49822;41.468;13.560;2022-09-03T05:31:34;17.05;;;6.47;;
63316;SDS011;49822;41.468;13.560;2022-09-03T05:34:05;11.30;;;5.50;;
63316;SDS011;49822;41.468;13.560;2022-09-03T05:36:34;13.45;;;5.00;;
63316;SDS011;49822;41.468;13.560;2022-09-03T05:39:04;7.25;;;4.25;;
63316;SDS011;49822;41.468;13.560;2022-09-03T05:41:35;10.70;;;5.25;;
63316;SDS011;49822;41.468;13.560;2022-09-03T05:44:02;13.45;;;6.38;;
63316;SDS011;49822;41.468;13.560;2022-09-03T05:46:32;18.17;;;8.18;;
63316;SDS011;49822;41.468;13.560;2022-09-03T05:49:04;22.45;;;9.90;;
63316;SDS011;49822;41.468;13.560;2022-09-03T05:51:51;16.17;;;8.45;;
63316;SDS011;49822;41.468;13.560;2022-09-03T05:54:20;16.75;;;5.93;;
63316;SDS011;49822;41.468;13.560;2022-09-03T05:56:48;9.00;;;4.05;;
63316;SDS011;49822;41.468;13.560;2022-09-03T05:59:16;8.00;;;4.50;;
63316;SDS011;49822;41.468;13.560;2022-09-03T06:01:45;6.05;;;3.67;;
63316;SDS011;49822;41.468;13.560;2022-09-03T06:04:17;5.90;;;4.28;;
63316;SDS011;49822;41.468;13.560;2022-09-03T06:06:46;8.85;;;5.20;;
63316;SDS011;49822;41.468;13.560;2022-09-03T06:09:15;8.93;;;4.95;;
63316;SDS011;49822;41.468;13.560;2022-09-03T06:11:45;10.85;;;5.03;;
63316;SDS011;49822;41.468;13.560;2022-09-03T06:14:18;12.02;;;5.63;;
63316;SDS011;49822;41.468;13.560;2022-09-03T06:16:47;7.82;;;4.70;;
63316;SDS011;49822;41.468;13.560;2022-09-03T06:19:16;9.38;;;5.45;;
63316;SDS011;49822;41.468;13.560;2022-09-03T06:21:44;9.90;;;5.57;;
63316;SDS011;49822;41.468;13.560;2022-09-03T06:24:14;9.40;;;4.97;;
63316;SDS011;49822;41.468;13.560;2022-09-03T06:26:43;9.82;;;4.88;;
63316;SDS011;49822;41.468;13.560;2022-09-03T06:29:12;10.25;;;4.65;;
63316;SDS011;49822;41.468;13.560;2022-09-03T06:31:40;10.73;;;5.03;;
63316;SDS011;49822;41.468;13.560;2022-09-03T06:34:08;7.50;;;4.65;;
63316;SDS011;49822;41.468;13.560;2022-09-03T06:36:38;8.80;;;4.10;;
63316;SDS011;49822;41.468;13.560;2022-09-03T06:39:09;9.93;;;4.18;;
63316;SDS011;49822;41.468;13.560;2022-09-03T06:41:37;8.45;;;4.53;;
63316;SDS011;49822;41.468;13.560;2022-09-03T06:44:06;7.18;;;4.15;;
63316;SDS011;49822;41.468;13.560;2022-09-03T06:46:38;11.23;;;4.28;;
63316;SDS011;49822;41.468;13.560;2022-09-03T06:49:09;7.68;;;4.25;;
63316;SDS011;49822;41.468;13.560;2022-09-03T06:51:37;5.85;;;4.00;;
63316;SDS011;49822;41.468;13.560;2022-09-03T06:54:06;7.30;;;3.90;;
63316;SDS011;49822;41.468;13.560;2022-09-03T06:56:53;8.38;;;4.28;;
63316;SDS011;49822;41.468;13.560;2022-09-03T06:59:20;8.43;;;4.32;;
63316;SDS011;49822;41.468;13.560;2022-09-03T07:01:48;6.72;;;3.90;;
63316;SDS011;49822;41.468;13.560;2022-09-03T07:04:29;11.10;;;4.40;;
63316;SDS011;49822;41.468;13.560;2022-09-03T07:07:18;9.15;;;3.50;;
63316;SDS011;49822;41.468;13.560;2022-09-03T07:10:05;7.20;;;3.63;;
63316;SDS011;49822;41.468;13.560;2022-09-03T07:12:33;7.20;;;3.88;;
63316;SDS011;49822;41.468;13.560;2022-09-03T07:17:33;10.80;;;3.55;;
63316;SDS011;49822;41.468;13.560;2022-09-03T07:20:00;6.65;;;3.35;;
63316;SDS011;49822;41.468;13.560;2022-09-03T07:22:28;6.93;;;3.65;;
63316;SDS011;49822;41.468;13.560;2022-09-03T07:24:57;7.93;;;3.15;;
63316;SDS011;49822;41.468;13.560;2022-09-03T07:27:25;12.10;;;3.70;;
63316;SDS011;49822;41.468;13.560;2022-09-03T07:30:12;5.97;;;3.45;;
63316;SDS011;49822;41.468;13.560;2022-09-03T07:32:44;8.98;;;3.60;;
63316;SDS011;49822;41.468;13.560;2022-09-03T07:35:13;5.85;;;3.13;;
63316;SDS011;49822;41.468;13.560;2022-09-03T07:37:41;6.50;;;3.42;;
63316;SDS011;49822;41.468;13.560;2022-09-03T07:40:10;7.00;;;2.83;;
63316;SDS011;49822;41.468;13.560;2022-09-03T07:42:37;4.53;;;3.00;;
63316;SDS011;49822;41.468;13.560;2022-09-03T07:45:06;6.75;;;2.83;;
63316;SDS011;49822;41.468;13.560;2022-09-03T07:47:45;4.90;;;3.13;;
63316;SDS011;49822;41.468;13.560;2022-09-03T07:50:15;5.45;;;2.88;;
63316;SDS011;49822;41.468;13.560;2022-09-03T07:52:43;4.63;;;3.00;;
63316;SDS011;49822;41.468;13.560;2022-09-03T07:55:11;6.20;;;2.90;;
63316;SDS011;49822;41.468;13.560;2022-09-03T07:57:39;6.25;;;2.90;;
63316;SDS011;49822;41.468;13.560;2022-09-03T08:00:07;3.85;;;2.40;;
63316;SDS011;49822;41.468;13.560;2022-09-03T08:02:37;5.18;;;2.70;;
63316;SDS011;49822;41.468;13.560;2022-09-03T08:05:10;5.25;;;3.22;;
63316;SDS011;49822;41.468;13.560;2022-09-03T08:07:38;6.43;;;2.63;;
63316;SDS011;49822;41.468;13.560;2022-09-03T08:10:07;4.60;;;2.70;;
63316;SDS011;49822;41.468;13.560;2022-09-03T08:12:35;4.30;;;2.83;;
63316;SDS011;49822;41.468;13.560;2022-09-03T08:15:03;4.80;;;2.75;;
63316;SDS011;49822;41.468;13.560;2022-09-03T08:20:02;5.28;;;2.50;;
63316;SDS011;49822;41.468;13.560;2022-09-03T08:22:32;5.63;;;2.45;;
63316;SDS011;49822;41.468;13.560;2022-09-03T08:25:00;3.47;;;2.28;;
63316;SDS011;49822;41.468;13.560;2022-09-03T08:27:30;4.60;;;2.33;;
63316;SDS011;49822;41.468;13.560;2022-09-03T08:30:00;5.05;;;2.67;;
63316;SDS011;49822;41.468;13.560;2022-09-03T08:32:31;5.18;;;2.33;;
63316;SDS011;49822;41.468;13.560;2022-09-03T08:35:01;3.50;;;2.55;;
63316;SDS011;49822;41.468;13.560;2022-09-03T08:37:30;5.38;;;2.65;;
63316;SDS011;49822;41.468;13.560;2022-09-03T08:39:58;3.05;;;2.30;;
63316;SDS011;49822;41.468;13.560;2022-09-03T08:42:38;4.28;;;2.70;;
63316;SDS011;49822;41.468;13.560;2022-09-03T08:45:16;4.70;;;2.77;;
63316;SDS011;49822;41.468;13.560;2022-09-03T08:48:00;5.80;;;2.47;;
63316;SDS011;49822;41.468;13.560;2022-09-03T08:50:32;6.70;;;2.58;;
63316;SDS011;49822;41.468;13.560;2022-09-03T08:58:20;5.53;;;2.50;;
63316;SDS011;49822;41.468;13.560;2022-09-03T09:20:34;3.63;;;2.40;;
63316;SDS011;49822;41.468;13.560;2022-09-03T09:23:14;3.53;;;2.78;;
63316;SDS011;49822;41.468;13.560;2022-09-03T09:25:53;4.50;;;2.50;;
63316;SDS011;49822;41.468;13.560;2022-09-03T09:28:25;4.13;;;2.38;;
63316;SDS011;49822;41.468;13.560;2022-09-03T09:30:59;3.28;;;2.53;;
63316;SDS011;49822;41.468;13.560;2022-09-03T09:33:29;3.97;;;2.35;;
63316;SDS011;49822;41.468;13.560;2022-09-03T09:36:00;2.92;;;2.35;;
63316;SDS011;49822;41.468;13.560;2022-09-03T09:38:34;4.82;;;2.67;;
63316;SDS011;49822;41.468;13.560;2022-09-03T09:41:15;5.88;;;2.72;;
63316;SDS011;49822;41.468;13.560;2022-09-03T09:43:46;6.28;;;2.72;;
63316;SDS011;49822;41.468;13.560;2022-09-03T09:46:15;5.93;;;2.50;;
63316;SDS011;49822;41.468;13.560;2022-09-03T09:48:50;4.40;;;2.97;;
63316;SDS011;49822;41.468;13.560;2022-09-03T09:51:25;4.28;;;2.60;;
63316;SDS011;49822;41.468;13.560;2022-09-03T09:54:12;5.72;;;2.92;;
63316;SDS011;49822;41.468;13.560;2022-09-03T09:56:46;4.27;;;2.30;;
63316;SDS011;49822;41.468;13.560;2022-09-03T09:59:25;3.45;;;2.63;;
63316;SDS011;49822;41.468;13.560;2022-09-03T10:02:01;5.53;;;2.50;;
63316;SDS011;49822;41.468;13.560;2022-09-03T10:04:35;5.03;;;2.85;;
63316;SDS011;49822;41.468;13.560;2022-09-03T10:07:04;4.38;;;2.20;;
63316;SDS011;49822;41.468;13.560;2022-09-03T10:09:59;4.03;;;2.35;;
63316;SDS011;49822;41.468;13.560;2022-09-03T10:12:34;3.33;;;2.50;;
63316;SDS011;49822;41.468;13.560;2022-09-03T10:18:19;5.40;;;2.55;;
63316;SDS011;49822;41.468;13.560;2022-09-03T10:20:59;6.00;;;2.53;;
63316;SDS011;49822;41.468;13.560;2022-09-03T10:23:50;4.20;;;2.55;;
63316;SDS011;49822;41.468;13.560;2022-09-03T10:26:33;8.40;;;2.85;;
63316;SDS011;49822;41.468;13.560;2022-09-03T10:29:03;7.27;;;2.50;;
63316;SDS011;49822;41.468;13.560;2022-09-03T10:34:28;5.18;;;2.63;;
63316;SDS011;49822;41.468;13.560;2022-09-03T10:51:40;6.28;;;2.40;;
63316;SDS011;49822;41.468;13.560;2022-09-03T10:54:19;5.63;;;2.60;;
63316;SDS011;49822;41.468;13.560;2022-09-03T10:56:53;4.07;;;2.90;;
63316;SDS011;49822;41.468;13.560;2022-09-03T10:59:27;8.07;;;2.50;;
63316;SDS011;49822;41.468;13.560;2022-09-03T11:04:52;7.28;;;3.03;;
63316;SDS011;49822;41.468;13.560;2022-09-03T11:07:44;7.22;;;2.95;;
63316;SDS011;49822;41.468;13.560;2022-09-03T11:10:33;5.70;;;3.20;;
63316;SDS011;49822;41.468;13.560;2022-09-03T11:13:16;6.72;;;3.08;;
63316;SDS011;49822;41.468;13.560;2022-09-03T11:15:58;5.85;;;3.47;;
63316;SDS011;49822;41.468;13.560;2022-09-03T11:18:47;7.30;;;3.08;;
63316;SDS011;49822;41.468;13.560;2022-09-03T11:21:19;7.15;;;3.28;;
63316;SDS011;49822;41.468;13.560;2022-09-03T11:23:52;6.97;;;3.45;;
63316;SDS011;49822;41.468;13.560;2022-09-03T11:26:31;5.15;;;3.15;;
63316;SDS011;49822;41.468;13.560;2022-09-03T11:29:03;8.15;;;2.90;;
63316;SDS011;49822;41.468;13.560;2022-09-03T11:31:52;4.57;;;2.83;;
63316;SDS011;49822;41.468;13.560;2022-09-03T11:34:46;5.18;;;3.22;;
63316;SDS011;49822;41.468;13.560;2022-09-03T11:37:24;7.00;;;2.83;;
63316;SDS011;49822;41.468;13.560;2022-09-03T11:39:58;7.05;;;2.95;;
63316;SDS011;49822;41.468;13.560;2022-09-03T11:43:03;4.70;;;2.88;;
63316;SDS011;49822;41.468;13.560;2022-09-03T11:45:38;4.10;;;2.58;;
63316;SDS011;49822;41.468;13.560;2022-09-03T11:48:17;3.78;;;2.53;;
63316;SDS011;49822;41.468;13.560;2022-09-03T11:50:59;4.85;;;2.22;;
63316;SDS011;49822;41.468;13.560;2022-09-03T11:53:32;4.72;;;2.72;;
63316;SDS011;49822;41.468;13.560;2022-09-03T11:58:35;4.50;;;2.92;;
63316;SDS011;49822;41.468;13.560;2022-09-03T12:01:09;5.40;;;2.35;;
63316;SDS011;49822;41.468;13.560;2022-09-03T12:15:14;5.37;;;3.27;;
63316;SDS011;49822;41.468;13.560;2022-09-03T12:18:07;5.30;;;3.10;;
63316;SDS011;49822;41.468;13.560;2022-09-03T12:21:08;4.63;;;2.85;;
63316;SDS011;49822;41.468;13.560;2022-09-03T12:23:44;5.60;;;3.10;;
63316;SDS011;49822;41.468;13.560;2022-09-03T12:26:25;4.90;;;2.80;;
63316;SDS011;49822;41.468;13.560;2022-09-03T12:28:54;7.55;;;3.05;;
63316;SDS011;49822;41.468;13.560;2022-09-03T12:31:24;5.45;;;3.08;;
63316;SDS011;49822;41.468;13.560;2022-09-03T12:34:02;4.13;;;2.63;;
63316;SDS011;49822;41.468;13.560;2022-09-03T12:36:43;5.25;;;2.90;;
63316;SDS011;49822;41.468;13.560;2022-09-03T12:39:16;8.98;;;2.70;;
63316;SDS011;49822;41.468;13.560;2022-09-03T12:42:06;4.28;;;3.00;;
63316;SDS011;49822;41.468;13.560;2022-09-03T12:44:41;7.55;;;3.28;;
63316;SDS011;49822;41.468;13.560;2022-09-03T12:50:07;5.90;;;2.88;;
63316;SDS011;49822;41.468;13.560;2022-09-03T12:52:42;4.75;;;2.85;;
63316;SDS011;49822;41.468;13.560;2022-09-03T12:55:44;6.20;;;3.10;;
63316;SDS011;49822;41.468;13.560;2022-09-03T12:58:25;4.15;;;2.78;;
63316;SDS011;49822;41.468;13.560;2022-09-03T13:03:51;4.78;;;2.60;;
63316;SDS011;49822;41.468;13.560;2022-09-03T13:09:26;7.40;;;2.65;;
63316;SDS011;49822;41.468;13.560;2022-09-03T13:11:57;4.60;;;2.50;;
63316;SDS011;49822;41.468;13.560;2022-09-03T13:14:25;4.55;;;2.97;;
63316;SDS011;49822;41.468;13.560;2022-09-03T13:17:01;5.65;;;2.55;;
63316;SDS011;49822;41.468;13.560;2022-09-03T13:19:40;4.82;;;2.60;;
63316;SDS011;49822;41.468;13.560;2022-09-03T13:22:22;5.85;;;3.13;;
63316;SDS011;49822;41.468;13.560;2022-09-03T13:31:08;4.60;;;2.80;;
63316;SDS011;49822;41.468;13.560;2022-09-03T13:34:12;4.00;;;2.70;;
63316;SDS011;49822;41.468;13.560;2022-09-03T13:39:57;4.13;;;2.65;;
63316;SDS011;49822;41.468;13.560;2022-09-03T13:42:37;3.55;;;2.58;;
63316;SDS011;49822;41.468;13.560;2022-09-03T13:45:53;3.92;;;2.67;;
63316;SDS011;49822;41.468;13.560;2022-09-03T13:48:19;5.03;;;2.45;;
63316;SDS011;49822;41.468;13.560;2022-09-03T13:51:30;7.47;;;2.92;;
63316;SDS011;49822;41.468;13.560;2022-09-03T13:54:18;4.70;;;2.53;;
63316;SDS011;49822;41.468;13.560;2022-09-03T13:57:08;5.10;;;3.00;;
63316;SDS011;49822;41.468;13.560;2022-09-03T13:59:57;4.30;;;2.60;;
63316;SDS011;49822;41.468;13.560;2022-09-03T14:05:40;5.35;;;2.60;;
63316;SDS011;49822;41.468;13.560;2022-09-03T14:11:37;4.70;;;2.63;;
63316;SDS011;49822;41.468;13.560;2022-09-03T14:17:41;3.88;;;2.60;;
63316;SDS011;49822;41.468;13.560;2022-09-03T14:20:32;4.50;;;2.38;;
63316;SDS011;49822;41.468;13.560;2022-09-03T14:26:20;5.03;;;2.28;;
63316;SDS011;49822;41.468;13.560;2022-09-03T14:34:54;5.53;;;2.17;;
63316;SDS011;49822;41.468;13.560;2022-09-03T14:38:01;4.57;;;2.38;;
63316;SDS011;49822;41.468;13.560;2022-09-03T14:46:21;3.50;;;1.98;;
63316;SDS011;49822;41.468;13.560;2022-09-03T14:55:00;3.70;;;2.10;;
63316;SDS011;49822;41.468;13.560;2022-09-03T15:00:14;3.72;;;2.10;;
63316;SDS011;49822;41.468;13.560;2022-09-03T15:08:43;5.35;;;1.90;;
63316;SDS011;49822;41.468;13.560;2022-09-03T15:28:11;2.35;;;1.70;;
63316;SDS011;49822;41.468;13.560;2022-09-03T15:41:36;4.53;;;2.00;;
63316;SDS011;49822;41.468;13.560;2022-09-03T15:44:11;5.15;;;2.22;;
63316;SDS011;49822;41.468;13.560;2022-09-03T15:57:39;2.63;;;1.88;;
63316;SDS011;49822;41.468;13.560;2022-09-03T16:03:34;3.83;;;1.90;;
63316;SDS011;49822;41.468;13.560;2022-09-03T16:06:20;3.38;;;1.80;;
63316;SDS011;49822;41.468;13.560;2022-09-03T16:09:08;2.35;;;1.85;;
63316;SDS011;49822;41.468;13.560;2022-09-03T16:11:58;2.25;;;1.70;;
63316;SDS011;49822;41.468;13.560;2022-09-03T16:15:03;2.63;;;1.75;;
63316;SDS011;49822;41.468;13.560;2022-09-03T16:18:00;2.35;;;1.52;;
63316;SDS011;49822;41.468;13.560;2022-09-03T16:20:37;2.10;;;1.70;;
63316;SDS011;49822;41.468;13.560;2022-09-03T16:23:24;6.28;;;2.10;;
63316;SDS011;49822;41.468;13.560;2022-09-03T16:25:59;3.10;;;1.88;;
63316;SDS011;49822;41.468;13.560;2022-09-03T16:36:49;6.40;;;1.90;;
63316;SDS011;49822;41.468;13.560;2022-09-03T16:42:11;2.28;;;1.88;;
63316;SDS011;49822;41.468;13.560;2022-09-03T16:50:33;4.32;;;1.70;;
63316;SDS011;49822;41.468;13.560;2022-09-03T16:53:14;3.25;;;1.90;;
63316;SDS011;49822;41.468;13.560;2022-09-03T17:02:06;7.43;;;2.50;;
63316;SDS011;49822;41.468;13.560;2022-09-03T17:22:05;3.97;;;2.20;;
63316;SDS011;49822;41.468;13.560;2022-09-03T17:24:45;5.70;;;2.10;;
63316;SDS011;49822;41.468;13.560;2022-09-03T17:49:00;5.50;;;2.50;;
63316;SDS011;49822;41.468;13.560;2022-09-03T17:51:38;4.72;;;2.40;;
63316;SDS011;49822;41.468;13.560;2022-09-03T18:05:23;6.90;;;3.70;;
63316;SDS011;49822;41.468;13.560;2022-09-03T18:16:25;11.15;;;4.28;;
63316;SDS011;49822;41.468;13.560;2022-09-03T18:19:00;9.20;;;3.80;;
63316;SDS011;49822;41.468;13.560;2022-09-03T18:25:13;6.22;;;2.97;;
63316;SDS011;49822;41.468;13.560;2022-09-03T18:28:02;6.38;;;3.30;;
63316;SDS011;49822;41.468;13.560;2022-09-03T18:30:51;6.68;;;3.80;;
63316;SDS011;49822;41.468;13.560;2022-09-03T18:33:37;4.15;;;2.95;;
63316;SDS011;49822;41.468;13.560;2022-09-03T18:36:26;7.38;;;3.22;;
63316;SDS011;49822;41.468;13.560;2022-09-03T18:39:22;7.03;;;3.50;;
63316;SDS011;49822;41.468;13.560;2022-09-03T18:42:19;4.63;;;3.03;;
63316;SDS011;49822;41.468;13.560;2022-09-03T18:49:01;6.47;;;2.88;;
63316;SDS011;49822;41.468;13.560;2022-09-03T18:51:58;4.25;;;2.90;;
63316;SDS011;49822;41.468;13.560;2022-09-03T18:55:10;5.45;;;3.00;;
63316;SDS011;49822;41.468;13.560;2022-09-03T18:58:23;5.55;;;2.75;;
63316;SDS011;49822;41.468;13.560;2022-09-03T19:01:45;4.90;;;3.15;;
63316;SDS011;49822;41.468;13.560;2022-09-03T19:11:00;7.38;;;2.85;;
63316;SDS011;49822;41.468;13.560;2022-09-03T19:13:50;5.97;;;2.70;;
63316;SDS011;49822;41.468;13.560;2022-09-03T19:20:02;5.80;;;2.70;;
63316;SDS011;49822;41.468;13.560;2022-09-03T19:22:49;4.20;;;2.58;;
63316;SDS011;49822;41.468;13.560;2022-09-03T19:25:35;6.63;;;2.58;;
63316;SDS011;49822;41.468;13.560;2022-09-03T19:46:48;3.65;;;2.63;;
63316;SDS011;49822;41.468;13.560;2022-09-03T19:55:44;4.10;;;2.45;;
63316;SDS011;49822;41.468;13.560;2022-09-03T19:58:37;3.85;;;2.35;;
63316;SDS011;49822;41.468;13.560;2022-09-03T20:01:34;6.22;;;2.70;;
63316;SDS011;49822;41.468;13.560;2022-09-03T20:04:24;7.63;;;3.10;;
63316;SDS011;49822;41.468;13.560;2022-09-03T20:07:32;6.40;;;2.90;;
63316;SDS011;49822;41.468;13.560;2022-09-03T20:10:21;6.88;;;2.75;;
63316;SDS011;49822;41.468;13.560;2022-09-03T20:15:28;6.07;;;3.03;;
63316;SDS011;49822;41.468;13.560;2022-09-03T20:20:54;13.75;;;3.35;;
63316;SDS011;49822;41.468;13.560;2022-09-03T20:35:27;4.75;;;2.70;;
63316;SDS011;49822;41.468;13.560;2022-09-03T20:40:44;3.58;;;2.85;;
63316;SDS011;49822;41.468;13.560;2022-09-03T20:46:12;5.97;;;3.10;;
63316;SDS011;49822;41.468;13.560;2022-09-03T20:54:47;6.05;;;2.97;;
63316;SDS011;49822;41.468;13.560;2022-09-03T21:00:51;3.85;;;2.80;;
63316;SDS011;49822;41.468;13.560;2022-09-03T21:14:50;9.13;;;3.28;;
63316;SDS011;49822;41.468;13.560;2022-09-03T21:20:46;7.50;;;2.75;;
63316;SDS011;49822;41.468;13.560;2022-09-03T21:23:40;5.93;;;3.10;;
63316;SDS011;49822;41.468;13.560;2022-09-03T21:26:19;4.90;;;3.00;;
63316;SDS011;49822;41.468;13.560;2022-09-03T21:29:00;6.10;;;2.95;;
63316;SDS011;49822;41.468;13.560;2022-09-03T21:31:53;5.57;;;3.00;;
63316;SDS011;49822;41.468;13.560;2022-09-03T21:34:38;7.75;;;3.55;;
63316;SDS011;49822;41.468;13.560;2022-09-03T21:37:10;6.60;;;2.95;;
63316;SDS011;49822;41.468;13.560;2022-09-03T21:39:41;6.50;;;3.40;;
63316;SDS011;49822;41.468;13.560;2022-09-03T21:44:52;3.83;;;2.67;;
63316;SDS011;49822;41.468;13.560;2022-09-03T21:47:36;6.22;;;3.28;;
63316;SDS011;49822;41.468;13.560;2022-09-03T21:50:16;3.75;;;2.67;;
63316;SDS011;49822;41.468;13.560;2022-09-03T21:52:57;8.30;;;3.10;;
63316;SDS011;49822;41.468;13.560;2022-09-03T21:55:45;6.05;;;2.75;;
63316;SDS011;49822;41.468;13.560;2022-09-03T22:03:50;3.40;;;2.67;;
63316;SDS011;49822;41.468;13.560;2022-09-03T22:06:21;4.07;;;2.90;;
63316;SDS011;49822;41.468;13.560;2022-09-03T22:11:43;5.15;;;2.60;;
63316;SDS011;49822;41.468;13.560;2022-09-03T22:14:35;5.07;;;2.42;;
63316;SDS011;49822;41.468;13.560;2022-09-03T22:17:15;5.07;;;2.30;;
63316;SDS011;49822;41.468;13.560;2022-09-03T22:19:44;8.65;;;2.80;;
63316;SDS011;49822;41.468;13.560;2022-09-03T22:22:30;5.75;;;2.75;;
63316;SDS011;49822;41.468;13.560;2022-09-03T22:25:21;3.72;;;2.58;;